Gassoway, Louisiana
Current Conditions -  °F | °C
As of 7:53 PM on Friday 31 Oct 2014 (Local Time) from KTVR Reporting Station
Few Clouds Few Clouds  
Wind Chill: 55°   Ceiling: Unl
Heat Index: 55°   Visibility: 10mi
Dew Point: 42°   Wind: 10mph
Humidity: 62%   Direction: 20°NNE
Pressure: 30.22"   Gusts: NA
Location:  32.8408°N, 91.231°W
Report Text: KTVR 010053Z AUTO 02009KT 10SM FEW055 13/06 A3022 RMK AO2 SLP240 T01280056
Loading
Personal Weather Stations






























Interactive Weather Map
Tropical Storm Tracking
New forecast layout! Learn more

10-Day Weather Forecast

Advertisements
Track Severe Weather on mobile